createdAt,value
2022-08-11T00:01:54.028Z,62.96
2022-08-11T00:04:24.283Z,63.01
2022-08-11T00:06:52.292Z,62.83
2022-08-11T00:09:31.264Z,63.18
2022-08-11T00:11:59.166Z,63.23
2022-08-11T00:14:37.020Z,63.54
2022-08-11T00:17:10.745Z,63.66
2022-08-11T00:20:13.297Z,64.02
2022-08-11T00:22:32.742Z,64.36
2022-08-11T00:25:02.620Z,64.04
2022-08-11T00:27:34.942Z,64.36
2022-08-11T00:30:02.068Z,64.29
2022-08-11T00:32:29.966Z,64.42
2022-08-11T00:35:54.135Z,64.85
2022-08-11T00:37:53.565Z,65.14
2022-08-11T00:40:28.318Z,64.94
2022-08-11T00:43:39.249Z,65.68
2022-08-11T00:46:22.941Z,65.47
2022-08-11T00:49:18.487Z,65.87
2022-08-11T00:52:07.924Z,65.98
2022-08-11T00:55:03.442Z,65.95
2022-08-11T00:57:56.682Z,66.00
2022-08-11T01:00:32.184Z,66.20
2022-08-11T01:03:24.818Z,65.87
2022-08-11T01:06:04.622Z,66.24
2022-08-11T01:08:34.151Z,67.04
2022-08-11T01:11:55.200Z,66.43
2022-08-11T01:14:40.037Z,66.41
2022-08-11T01:17:25.354Z,66.74
2022-08-11T01:20:45.517Z,67.13
2022-08-11T01:23:23.286Z,67.47
2022-08-11T01:26:27.315Z,68.64
2022-08-11T01:29:35.639Z,67.81
2022-08-11T01:32:39.720Z,68.43
2022-08-11T01:35:37.364Z,68.34
2022-08-11T01:38:13.054Z,68.57
2022-08-11T01:41:01.009Z,68.46
2022-08-11T01:44:17.247Z,69.46
2022-08-11T01:46:50.281Z,69.25
2022-08-11T01:50:06.897Z,70.44
2022-08-11T01:52:39.947Z,69.16
2022-08-11T01:55:26.669Z,69.79
2022-08-11T01:58:15.258Z,70.35
2022-08-11T02:00:52.328Z,69.89
2022-08-11T02:03:48.171Z,70.40
2022-08-11T02:06:45.950Z,70.36
2022-08-11T02:09:50.051Z,71.04
2022-08-11T02:12:27.179Z,71.28
2022-08-11T02:15:05.535Z,72.22
2022-08-11T02:17:50.107Z,71.29
2022-08-11T02:20:46.395Z,71.21
2022-08-11T02:24:04.191Z,71.23
2022-08-11T02:26:31.738Z,71.54
2022-08-11T02:29:22.500Z,71.85
2022-08-11T02:32:30.218Z,71.19
2022-08-11T02:35:22.005Z,71.40
2022-08-11T02:38:14.248Z,72.19
2022-08-11T02:41:01.867Z,71.55
2022-08-11T02:43:52.656Z,72.20
2022-08-11T02:46:24.664Z,72.23
2022-08-11T02:49:18.166Z,72.34
2022-08-11T02:52:07.073Z,72.28
2022-08-11T02:54:53.518Z,72.67
2022-08-11T02:57:29.272Z,72.81
2022-08-11T03:00:07.475Z,72.72
2022-08-11T03:02:46.232Z,72.69
2022-08-11T03:05:13.758Z,73.39
2022-08-11T03:07:40.144Z,72.89
2022-08-11T03:10:17.287Z,73.11
2022-08-11T03:13:20.025Z,73.33
2022-08-11T03:16:23.057Z,72.96
2022-08-11T03:19:12.096Z,73.32
2022-08-11T03:22:02.521Z,73.77
2022-08-11T03:24:48.320Z,73.49
2022-08-11T03:27:30.398Z,74.27
2022-08-11T03:30:13.464Z,73.69
2022-08-11T03:33:17.552Z,74.57
2022-08-11T03:35:50.661Z,73.68
2022-08-11T03:38:30.396Z,73.43
2022-08-11T03:42:03.814Z,73.39
2022-08-11T03:44:49.983Z,73.98
2022-08-11T03:47:55.061Z,74.30
2022-08-11T03:50:51.879Z,73.41
2022-08-11T03:53:45.344Z,73.66
2022-08-11T03:56:45.450Z,74.53
2022-08-11T03:59:35.968Z,74.02
2022-08-11T04:02:21.061Z,74.31
2022-08-11T04:05:09.369Z,73.78
2022-08-11T04:08:02.085Z,73.88
2022-08-11T04:11:09.649Z,74.13
2022-08-11T04:13:54.731Z,74.00
2022-08-11T04:16:44.509Z,74.74
2022-08-11T04:19:56.429Z,74.27
2022-08-11T04:22:41.671Z,74.13
2022-08-11T04:25:57.863Z,74.59
2022-08-11T04:28:49.857Z,75.08
2022-08-11T04:31:52.271Z,74.58
2022-08-11T04:34:51.510Z,74.57
2022-08-11T04:37:36.404Z,75.01
2022-08-11T04:40:18.010Z,74.81
2022-08-11T04:43:21.352Z,75.22
2022-08-11T04:46:28.470Z,75.33
2022-08-11T04:49:33.831Z,75.19
2022-08-11T04:52:41.711Z,75.21
2022-08-11T04:56:04.175Z,76.03
2022-08-11T04:59:08.291Z,75.58
2022-08-11T05:01:43.803Z,75.02
2022-08-11T05:04:34.913Z,75.01
2022-08-11T05:07:29.044Z,75.45
2022-08-11T05:10:29.635Z,74.44
2022-08-11T05:13:19.504Z,74.49
2022-08-11T05:16:09.974Z,74.06
2022-08-11T05:19:08.702Z,73.61
2022-08-11T05:21:57.297Z,72.21
2022-08-11T05:24:51.785Z,71.04
2022-08-11T05:27:40.157Z,69.79
2022-08-11T05:30:27.573Z,68.98
2022-08-11T05:33:40.524Z,68.23
2022-08-11T05:36:27.401Z,67.56
2022-08-11T05:39:36.508Z,66.98
2022-08-11T05:42:39.237Z,66.03
2022-08-11T05:46:03.204Z,65.59
2022-08-11T05:48:36.392Z,65.37
2022-08-11T05:51:29.907Z,64.71
2022-08-11T05:54:28.377Z,64.16
2022-08-11T05:57:01.543Z,63.43
2022-08-11T05:59:29.503Z,62.91
2022-08-11T06:02:02.612Z,61.63
2022-08-11T06:04:30.214Z,61.49
2022-08-11T06:07:08.796Z,60.88
2022-08-11T06:09:47.014Z,61.01
2022-08-11T06:12:32.459Z,59.97
2022-08-11T06:15:05.782Z,59.50
2022-08-11T06:17:39.039Z,58.96
2022-08-11T06:20:11.777Z,58.54
2022-08-11T06:22:55.793Z,58.26
2022-08-11T06:25:30.083Z,58.20
2022-08-11T06:27:57.369Z,57.42
2022-08-11T06:30:35.054Z,56.85
2022-08-11T06:33:04.626Z,56.53
2022-08-11T06:36:02.665Z,55.55
2022-08-11T06:39:08.475Z,54.97
2022-08-11T06:41:48.365Z,54.66
2022-08-11T06:44:16.497Z,54.62
2022-08-11T06:46:48.071Z,54.72
2022-08-11T06:49:35.192Z,54.03
2022-08-11T06:52:06.014Z,53.62
2022-08-11T06:54:36.266Z,53.16
2022-08-11T06:57:31.644Z,53.29
2022-08-11T07:00:18.415Z,52.51
2022-08-11T07:03:09.065Z,52.09
2022-08-11T07:05:55.593Z,51.01
2022-08-11T07:09:13.930Z,50.11
2022-08-11T07:12:13.653Z,47.52
2022-08-11T07:15:07.939Z,46.21
2022-08-11T07:17:42.560Z,47.12
2022-08-11T07:20:29.448Z,46.38
2022-08-11T07:23:20.070Z,45.40
2022-08-11T07:26:10.240Z,43.60
2022-08-11T07:28:55.939Z,44.39
2022-08-11T07:31:29.193Z,43.61
2022-08-11T07:34:22.680Z,43.13
2022-08-11T07:37:03.457Z,43.58
2022-08-11T07:39:33.897Z,42.42
2022-08-11T07:42:07.212Z,41.57
2022-08-11T07:44:54.970Z,42.16
2022-08-11T07:47:41.598Z,41.24
2022-08-11T07:50:28.102Z,41.15
2022-08-11T07:52:55.620Z,39.84
2022-08-11T07:55:50.750Z,39.84
2022-08-11T07:58:34.097Z,38.51
2022-08-11T08:01:36.665Z,38.27
2022-08-11T08:04:27.809Z,37.31
2022-08-11T08:07:13.720Z,36.41
2022-08-11T08:10:00.478Z,34.97
2022-08-11T08:12:45.802Z,35.06
2022-08-11T08:15:33.558Z,34.61
2022-08-11T08:18:09.442Z,33.74
2022-08-11T08:20:50.864Z,34.51
2022-08-11T08:23:34.440Z,34.01
2022-08-11T08:26:04.482Z,33.66
2022-08-11T08:28:33.282Z,32.74
2022-08-11T08:31:00.288Z,32.41
2022-08-11T08:33:29.607Z,32.74
2022-08-11T08:36:16.237Z,30.61
2022-08-11T08:38:48.958Z,32.19
2022-08-11T08:41:21.984Z,31.72
2022-08-11T08:43:52.051Z,30.47
2022-08-11T08:46:22.255Z,30.38
2022-08-11T08:48:50.341Z,30.06
2022-08-11T08:51:54.874Z,29.73
2022-08-11T08:54:38.041Z,29.17
2022-08-11T08:57:07.967Z,30.30
2022-08-11T08:59:49.122Z,28.65
2022-08-11T09:02:33.948Z,27.94
2022-08-11T09:05:09.826Z,27.57
2022-08-11T09:07:38.681Z,27.42
2022-08-11T09:10:08.321Z,27.53
2022-08-11T09:12:41.559Z,27.52
2022-08-11T09:15:11.513Z,27.34
2022-08-11T09:17:47.498Z,26.31
2022-08-11T09:20:17.434Z,25.50
2022-08-11T09:26:17.612Z,25.45
2022-08-11T09:28:45.954Z,25.70
2022-08-11T09:31:14.535Z,24.34
2022-08-11T09:33:43.194Z,24.69
2022-08-11T09:36:31.056Z,24.93
2022-08-11T09:39:18.496Z,24.47
2022-08-11T09:42:00.806Z,23.38
2022-08-11T09:44:48.869Z,23.51
2022-08-11T09:47:24.666Z,23.14
2022-08-11T09:49:55.038Z,21.68
2022-08-11T09:52:23.659Z,22.26
2022-08-11T09:54:52.259Z,21.69
2022-08-11T09:57:41.812Z,22.11
2022-08-11T10:00:13.600Z,22.52
2022-08-11T10:02:50.260Z,20.65
2022-08-11T10:05:37.819Z,20.62
2022-08-11T10:08:05.754Z,20.70
2022-08-11T10:10:37.644Z,20.19
2022-08-11T10:14:30.421Z,20.12
2022-08-11T10:16:14.422Z,19.43
2022-08-11T10:18:52.286Z,19.44
2022-08-11T10:21:28.926Z,18.59
2022-08-11T10:24:17.543Z,19.07
2022-08-11T10:26:55.071Z,19.41
2022-08-11T10:29:51.959Z,19.78
2022-08-11T10:32:58.050Z,18.57
2022-08-11T10:35:28.038Z,18.01
2022-08-11T10:38:07.414Z,18.28
2022-08-11T10:40:46.824Z,16.92
2022-08-11T10:43:18.797Z,17.02
2022-08-11T10:46:19.824Z,17.59
2022-08-11T10:48:59.064Z,18.08
2022-08-11T10:51:51.042Z,17.44
2022-08-11T10:54:40.153Z,17.92
2022-08-11T10:57:25.558Z,18.56
2022-08-11T10:59:55.045Z,17.38
2022-08-11T11:02:22.490Z,17.53
2022-08-11T11:05:02.923Z,16.98
2022-08-11T11:07:44.333Z,17.19
2022-08-11T11:10:11.186Z,17.50
2022-08-11T11:13:04.274Z,16.93
2022-08-11T11:15:53.157Z,16.82
2022-08-11T11:18:22.617Z,16.50
2022-08-11T11:20:57.871Z,16.68
2022-08-11T11:23:39.653Z,16.41
2022-08-11T11:26:13.130Z,17.14
2022-08-11T11:29:02.996Z,16.38
2022-08-11T11:31:51.610Z,17.06
2022-08-11T11:34:52.936Z,15.08
2022-08-11T11:37:23.673Z,15.98
2022-08-11T11:39:50.786Z,15.21
2022-08-11T11:42:18.527Z,16.25
2022-08-11T11:44:46.945Z,15.74
2022-08-11T11:47:15.484Z,16.60
2022-08-11T11:49:44.065Z,15.71
2022-08-11T11:52:20.116Z,16.32
2022-08-11T11:54:51.350Z,16.16
2022-08-11T11:57:38.947Z,16.20
2022-08-11T12:00:33.172Z,15.95
2022-08-11T12:03:03.681Z,16.03
2022-08-11T12:05:33.372Z,16.08
2022-08-11T12:08:15.920Z,14.74
2022-08-11T12:11:30.689Z,15.07
2022-08-11T12:14:00.579Z,14.76
2022-08-11T12:16:33.384Z,15.45
2022-08-11T12:19:05.221Z,15.03
2022-08-11T12:21:34.019Z,15.23
2022-08-11T12:24:20.625Z,16.01
2022-08-11T12:26:54.433Z,15.29
2022-08-11T12:29:35.365Z,14.53
2022-08-11T12:32:07.318Z,15.40
2022-08-11T12:34:34.068Z,15.21
2022-08-11T12:37:05.532Z,15.32
2022-08-11T12:40:16.023Z,15.29
2022-08-11T12:43:03.883Z,15.02
2022-08-11T12:45:31.489Z,15.73
2022-08-11T12:49:00.477Z,15.24
2022-08-11T12:52:11.160Z,15.34
2022-08-11T12:54:29.818Z,15.12
2022-08-11T12:57:36.789Z,15.26
2022-08-11T13:00:25.354Z,15.43
2022-08-11T13:03:11.946Z,15.36
2022-08-11T13:05:44.967Z,15.77
2022-08-11T13:08:14.968Z,15.24
2022-08-11T13:11:01.534Z,15.47
2022-08-11T13:13:55.226Z,15.74
2022-08-11T13:16:16.175Z,15.60
2022-08-11T13:18:44.238Z,15.07
2022-08-11T13:21:12.967Z,14.95
2022-08-11T13:24:01.507Z,14.81
2022-08-11T13:26:48.305Z,15.35
2022-08-11T13:29:28.541Z,15.92
2022-08-11T13:32:00.263Z,15.41
2022-08-11T13:34:28.430Z,15.67
2022-08-11T13:36:59.248Z,16.35
2022-08-11T13:39:28.423Z,15.98
2022-08-11T13:41:57.264Z,16.72
2022-08-11T13:44:29.923Z,17.26
2022-08-11T13:46:59.182Z,17.54
2022-08-11T13:49:26.338Z,16.11
2022-08-11T13:51:54.943Z,16.39
2022-08-11T13:54:25.946Z,16.86
2022-08-11T13:56:56.055Z,17.14
2022-08-11T13:59:24.020Z,17.38
2022-08-11T14:02:20.678Z,18.29
2022-08-11T14:05:10.022Z,17.92
2022-08-11T14:07:45.463Z,18.21
2022-08-11T14:10:14.454Z,17.84
2022-08-11T14:13:06.210Z,17.62
2022-08-11T14:15:34.886Z,18.06
2022-08-11T14:18:06.386Z,17.35
2022-08-11T14:20:54.021Z,17.98
2022-08-11T14:23:28.853Z,18.53
2022-08-11T14:26:15.057Z,17.68
2022-08-11T14:28:45.030Z,18.14
2022-08-11T14:31:16.226Z,18.53
2022-08-11T14:34:00.513Z,18.19
2022-08-11T14:36:51.495Z,18.91
2022-08-11T14:39:22.183Z,18.21
2022-08-11T14:42:16.714Z,18.01
2022-08-11T14:45:14.488Z,17.78
2022-08-11T14:47:43.936Z,18.91
2022-08-11T14:50:23.093Z,18.51
2022-08-11T14:52:52.585Z,18.78
2022-08-11T14:55:39.945Z,19.10
2022-08-11T14:58:11.099Z,19.40
2022-08-11T15:00:39.238Z,19.95
2022-08-11T15:03:12.682Z,19.82
2022-08-11T15:05:55.981Z,19.23
2022-08-11T15:08:45.869Z,20.13
2022-08-11T15:11:33.273Z,20.28
2022-08-11T15:14:02.251Z,20.45
2022-08-11T15:16:52.498Z,20.17
2022-08-11T15:19:21.383Z,20.59
2022-08-11T15:22:08.391Z,20.34
2022-08-11T15:24:36.581Z,20.46
2022-08-11T15:27:30.917Z,20.79
2022-08-11T15:30:33.012Z,20.90
2022-08-11T15:33:23.223Z,20.82
2022-08-11T15:36:23.575Z,21.27
2022-08-11T15:39:20.920Z,21.26
2022-08-11T15:42:33.716Z,21.45
2022-08-11T15:45:21.326Z,21.87
2022-08-11T15:48:05.813Z,21.20
2022-08-11T15:50:34.889Z,21.54
2022-08-11T15:53:11.771Z,21.80
2022-08-11T15:55:39.229Z,21.50
2022-08-11T15:58:28.137Z,21.26
2022-08-11T16:01:15.618Z,21.55
2022-08-11T16:04:12.807Z,22.04
2022-08-11T16:06:49.923Z,21.85
2022-08-11T16:09:24.998Z,21.67
2022-08-11T16:11:55.686Z,21.19
2022-08-11T16:14:43.015Z,21.86
2022-08-11T16:17:11.848Z,22.15
2022-08-11T16:19:40.951Z,22.00
2022-08-11T16:22:10.238Z,22.23
2022-08-11T16:27:06.987Z,23.66
2022-08-11T16:27:33.945Z,22.31
2022-08-11T16:30:01.745Z,23.08
2022-08-11T16:32:31.151Z,22.64
2022-08-11T16:35:19.637Z,22.28
2022-08-11T16:38:06.022Z,22.73
2022-08-11T16:40:33.535Z,23.45
2022-08-11T16:43:21.770Z,23.13
2022-08-11T16:46:07.970Z,23.22
2022-08-11T16:48:39.003Z,23.72
2022-08-11T16:51:07.682Z,23.67
2022-08-11T16:53:59.570Z,23.49
2022-08-11T16:56:35.237Z,24.02
2022-08-11T16:59:17.634Z,24.02
2022-08-11T17:01:57.969Z,23.90
2022-08-11T17:05:05.375Z,23.94
2022-08-11T17:07:51.511Z,23.67
2022-08-11T17:10:50.970Z,23.55
2022-08-11T17:13:22.514Z,23.63
2022-08-11T17:16:08.925Z,23.68
2022-08-11T17:18:51.217Z,24.12
2022-08-11T17:21:35.642Z,24.32
2022-08-11T17:24:09.486Z,24.51
2022-08-11T17:26:56.791Z,24.31
2022-08-11T17:29:32.041Z,24.44
2022-08-11T17:32:20.146Z,24.71
2022-08-11T17:35:08.177Z,25.09
2022-08-11T17:37:37.537Z,25.07
2022-08-11T17:40:08.967Z,24.80
2022-08-11T17:42:55.101Z,24.92
2022-08-11T17:45:42.373Z,24.69
2022-08-11T17:48:26.160Z,25.18
2022-08-11T17:50:59.157Z,25.37
2022-08-11T17:54:17.037Z,25.25
2022-08-11T17:56:54.111Z,25.15
2022-08-11T17:59:39.606Z,25.47
2022-08-11T18:02:34.420Z,25.44
2022-08-11T18:05:07.417Z,25.67
2022-08-11T18:07:59.877Z,25.95
2022-08-11T18:10:47.506Z,26.15
2022-08-11T18:13:35.327Z,26.29
2022-08-11T18:16:20.276Z,26.58
2022-08-11T18:19:05.218Z,26.78
2022-08-11T18:22:12.920Z,27.20
2022-08-11T18:25:00.327Z,27.72
2022-08-11T18:27:50.155Z,27.96
2022-08-11T18:30:35.529Z,28.15
2022-08-11T18:36:30.097Z,28.58
2022-08-11T18:39:16.567Z,29.54
2022-08-11T18:42:05.290Z,29.77
2022-08-11T18:44:52.395Z,30.11
2022-08-11T18:47:40.513Z,30.14
2022-08-11T18:50:39.616Z,30.84
2022-08-11T18:53:26.468Z,31.28
2022-08-11T18:56:12.391Z,32.28
2022-08-11T18:59:01.448Z,32.82
2022-08-11T19:01:54.976Z,33.24
2022-08-11T19:04:41.210Z,34.17
2022-08-11T19:07:28.127Z,34.17
2022-08-11T19:10:14.415Z,34.69
2022-08-11T19:13:01.255Z,34.74
2022-08-11T19:15:47.717Z,35.44
2022-08-11T19:18:37.674Z,36.64
2022-08-11T19:21:24.951Z,36.11
2022-08-11T19:24:12.741Z,37.02
2022-08-11T19:26:59.021Z,37.71
2022-08-11T19:30:09.064Z,37.57
2022-08-11T19:32:51.223Z,38.37
2022-08-11T19:35:37.544Z,38.59
2022-08-11T19:38:23.651Z,38.92
2022-08-11T19:41:09.901Z,38.83
2022-08-11T19:43:57.068Z,39.45
2022-08-11T19:46:44.053Z,39.82
2022-08-11T19:49:29.233Z,40.16
2022-08-11T19:52:16.015Z,40.30
2022-08-11T19:55:03.216Z,40.79
2022-08-11T19:57:50.046Z,40.85
2022-08-11T20:00:37.746Z,41.11
2022-08-11T20:03:25.704Z,41.08
2022-08-11T20:06:13.657Z,41.20
2022-08-11T20:09:02.125Z,41.77
2022-08-11T20:11:51.960Z,42.16
2022-08-11T20:14:39.423Z,42.30
2022-08-11T20:17:26.367Z,42.51
2022-08-11T20:20:11.664Z,42.54
2022-08-11T20:22:58.251Z,43.21
2022-08-11T20:25:44.349Z,43.63
2022-08-11T20:28:31.677Z,43.73
2022-08-11T20:31:16.930Z,43.70
2022-08-11T20:34:03.162Z,43.89
2022-08-11T20:36:54.082Z,44.17
2022-08-11T20:39:41.366Z,44.58
2022-08-11T20:42:30.446Z,44.58
2022-08-11T20:45:18.794Z,44.67
2022-08-11T20:48:14.892Z,45.12
2022-08-11T20:51:07.380Z,45.28
2022-08-11T20:53:59.167Z,45.50
2022-08-11T20:56:53.518Z,45.42
2022-08-11T20:59:49.433Z,46.07
2022-08-11T21:02:44.426Z,46.24
2022-08-11T21:06:09.009Z,46.18
2022-08-11T21:08:36.632Z,45.97
2022-08-11T21:11:27.641Z,46.09
2022-08-11T21:14:13.591Z,45.66
2022-08-11T21:17:00.528Z,45.85
2022-08-11T21:20:06.678Z,46.02
2022-08-11T21:23:05.464Z,45.80
2022-08-11T21:25:59.255Z,46.38
2022-08-11T21:28:47.183Z,47.12
2022-08-11T21:31:33.445Z,46.86
2022-08-11T21:34:19.735Z,47.06
2022-08-11T21:37:07.752Z,47.51
2022-08-11T21:39:53.430Z,47.30
2022-08-11T21:42:40.222Z,47.67
2022-08-11T21:45:28.909Z,47.77
2022-08-11T21:48:15.193Z,48.03
2022-08-11T21:51:00.004Z,48.31
2022-08-11T21:53:46.240Z,47.76
2022-08-11T21:56:34.886Z,48.18
2022-08-11T21:59:20.646Z,48.13
2022-08-11T22:02:12.419Z,47.93
2022-08-11T22:04:58.362Z,48.03
2022-08-11T22:07:43.705Z,48.17
2022-08-11T22:10:42.251Z,48.81
2022-08-11T22:13:31.424Z,48.53
2022-08-11T22:16:19.869Z,49.17
2022-08-11T22:19:06.024Z,49.01
2022-08-11T22:22:02.366Z,49.10
2022-08-11T22:24:52.041Z,49.27
2022-08-11T22:27:39.159Z,49.36
2022-08-11T22:30:28.633Z,49.55
2022-08-11T22:33:16.375Z,49.10
2022-08-11T22:36:03.662Z,49.26
2022-08-11T22:38:51.142Z,48.54
2022-08-11T22:41:36.397Z,48.38
2022-08-11T22:44:24.901Z,48.44
2022-08-11T22:47:12.204Z,49.13
2022-08-11T22:49:58.677Z,50.13
2022-08-11T22:52:46.673Z,50.18
2022-08-11T22:55:34.713Z,50.04
2022-08-11T22:58:21.982Z,50.06
2022-08-11T23:01:08.343Z,50.38
2022-08-11T23:03:54.060Z,50.47
2022-08-11T23:06:40.464Z,50.95
2022-08-11T23:09:27.406Z,51.03
2022-08-11T23:12:12.811Z,51.03
2022-08-11T23:14:59.644Z,50.75
2022-08-11T23:17:46.529Z,51.37
2022-08-11T23:20:42.358Z,51.89
2022-08-11T23:23:32.140Z,52.11
2022-08-11T23:26:18.626Z,52.20
2022-08-11T23:29:05.359Z,52.15
2022-08-11T23:31:53.914Z,52.75
2022-08-11T23:35:37.132Z,52.03
2022-08-11T23:37:47.021Z,51.99
2022-08-11T23:40:32.082Z,52.17
2022-08-11T23:43:17.018Z,52.38
2022-08-11T23:46:01.999Z,52.63
2022-08-11T23:48:48.849Z,52.82
2022-08-11T23:54:26.900Z,53.28
2022-08-11T23:57:13.121Z,53.54
2022-08-11T23:59:58.537Z,53.42
